Terminal Aerodrome Forecast
Issued by NWS Cleveland, OH

Home | Current Version | Previous Version | Graphics & Text | Print | Product List | Glossary On
Versions: 1 2 3 4 5 6 7 8 9 10 11 12 13 14 15 16 17 18 19 20 21 22 23 24 25 26 27 28 29
000
FTUS41 KCLE 271700 RRA
TAFCLE
TAF
KCLE 271741Z 2718/2824 22010KT P6SM SCT025 BKN040
      TEMPO 2719/2723 3SM TSRA OVC025CB
     FM272300 33008KT P6SM BKN040 OVC100
      TEMPO 2723/2803 5SM -SHRA BR OVC040
     FM280300 29008KT P6SM SCT060 BKN100
     FM280900 29010KT P6SM SCT008 OVC150
     FM281200 31010KT 5SM BR OVC008
     FM281500 33012G20KT P6SM OVC015
     FM281800 35012G20KT P6SM BKN035=

USA.gov is the U.S. government's official web portal to all federal, state and local government web resources and services.